sensor_id;sensor_type;location;lat;lon;timestamp;P1;durP1;ratioP1;P2;durP2;ratioP2
20954;SDS011;10636;19.390;-99.256;2023-06-14T00:00:46;4.90;;;3.22;;
20954;SDS011;10636;19.390;-99.256;2023-06-14T00:03:14;6.15;;;3.50;;
20954;SDS011;10636;19.390;-99.256;2023-06-14T00:05:45;4.97;;;3.50;;
20954;SDS011;10636;19.390;-99.256;2023-06-14T00:08:13;5.40;;;3.80;;
20954;SDS011;10636;19.390;-99.256;2023-06-14T00:10:44;8.40;;;3.97;;
20954;SDS011;10636;19.390;-99.256;2023-06-14T00:13:14;6.75;;;4.40;;
20954;SDS011;10636;19.390;-99.256;2023-06-14T00:15:43;7.75;;;4.90;;
20954;SDS011;10636;19.390;-99.256;2023-06-14T00:18:12;7.28;;;4.95;;
20954;SDS011;10636;19.390;-99.256;2023-06-14T00:20:40;6.63;;;4.68;;
20954;SDS011;10636;19.390;-99.256;2023-06-14T00:23:09;7.40;;;5.10;;
20954;SDS011;10636;19.390;-99.256;2023-06-14T00:25:37;7.88;;;4.88;;
20954;SDS011;10636;19.390;-99.256;2023-06-14T00:28:06;10.15;;;4.80;;
20954;SDS011;10636;19.390;-99.256;2023-06-14T00:30:36;8.60;;;4.78;;
20954;SDS011;10636;19.390;-99.256;2023-06-14T00:33:04;7.88;;;4.97;;
20954;SDS011;10636;19.390;-99.256;2023-06-14T00:35:33;5.75;;;4.65;;
20954;SDS011;10636;19.390;-99.256;2023-06-14T00:38:01;7.63;;;4.78;;
20954;SDS011;10636;19.390;-99.256;2023-06-14T00:40:30;7.65;;;5.30;;
20954;SDS011;10636;19.390;-99.256;2023-06-14T00:43:00;9.10;;;5.47;;
20954;SDS011;10636;19.390;-99.256;2023-06-14T00:45:28;9.07;;;5.22;;
20954;SDS011;10636;19.390;-99.256;2023-06-14T00:48:03;8.88;;;4.90;;
20954;SDS011;10636;19.390;-99.256;2023-06-14T00:50:33;8.30;;;5.30;;
20954;SDS011;10636;19.390;-99.256;2023-06-14T00:53:03;9.60;;;6.07;;
20954;SDS011;10636;19.390;-99.256;2023-06-14T00:55:32;7.93;;;6.18;;
20954;SDS011;10636;19.390;-99.256;2023-06-14T00:58:00;8.02;;;7.22;;
20954;SDS011;10636;19.390;-99.256;2023-06-14T01:00:29;9.95;;;7.25;;
20954;SDS011;10636;19.390;-99.256;2023-06-14T01:02:57;8.85;;;7.22;;
20954;SDS011;10636;19.390;-99.256;2023-06-14T01:05:28;9.60;;;7.30;;
20954;SDS011;10636;19.390;-99.256;2023-06-14T01:08:05;10.13;;;8.15;;
20954;SDS011;10636;19.390;-99.256;2023-06-14T01:10:50;11.50;;;8.52;;
20954;SDS011;10636;19.390;-99.256;2023-06-14T01:13:26;12.65;;;8.80;;
20954;SDS011;10636;19.390;-99.256;2023-06-14T01:15:59;10.82;;;8.73;;
20954;SDS011;10636;19.390;-99.256;2023-06-14T01:18:29;11.05;;;9.50;;
20954;SDS011;10636;19.390;-99.256;2023-06-14T01:20:59;10.75;;;9.65;;
20954;SDS011;10636;19.390;-99.256;2023-06-14T01:23:32;12.50;;;10.73;;
20954;SDS011;10636;19.390;-99.256;2023-06-14T01:26:01;13.73;;;11.27;;
20954;SDS011;10636;19.390;-99.256;2023-06-14T01:28:30;13.70;;;11.40;;
20954;SDS011;10636;19.390;-99.256;2023-06-14T01:31:01;13.82;;;11.23;;
20954;SDS011;10636;19.390;-99.256;2023-06-14T01:33:31;13.88;;;12.45;;
20954;SDS011;10636;19.390;-99.256;2023-06-14T01:36:02;13.68;;;12.27;;
20954;SDS011;10636;19.390;-99.256;2023-06-14T01:38:37;17.52;;;13.48;;
20954;SDS011;10636;19.390;-99.256;2023-06-14T01:41:05;15.15;;;13.55;;
20954;SDS011;10636;19.390;-99.256;2023-06-14T01:43:34;15.10;;;13.60;;
20954;SDS011;10636;19.390;-99.256;2023-06-14T01:46:03;16.85;;;14.07;;
20954;SDS011;10636;19.390;-99.256;2023-06-14T01:48:33;15.90;;;13.82;;
20954;SDS011;10636;19.390;-99.256;2023-06-14T01:51:02;16.50;;;14.75;;
20954;SDS011;10636;19.390;-99.256;2023-06-14T01:53:31;16.55;;;14.77;;
20954;SDS011;10636;19.390;-99.256;2023-06-14T01:56:01;18.45;;;14.68;;
20954;SDS011;10636;19.390;-99.256;2023-06-14T01:58:29;15.70;;;14.20;;
20954;SDS011;10636;19.390;-99.256;2023-06-14T02:01:01;16.08;;;14.52;;
20954;SDS011;10636;19.390;-99.256;2023-06-14T02:03:31;15.43;;;13.80;;
20954;SDS011;10636;19.390;-99.256;2023-06-14T02:05:59;17.08;;;14.85;;
20954;SDS011;10636;19.390;-99.256;2023-06-14T02:08:28;15.80;;;14.25;;
20954;SDS011;10636;19.390;-99.256;2023-06-14T02:10:58;15.52;;;13.93;;
20954;SDS011;10636;19.390;-99.256;2023-06-14T02:13:34;16.02;;;14.02;;
20954;SDS011;10636;19.390;-99.256;2023-06-14T02:16:05;17.25;;;14.07;;
20954;SDS011;10636;19.390;-99.256;2023-06-14T02:18:37;16.42;;;14.73;;
20954;SDS011;10636;19.390;-99.256;2023-06-14T02:21:08;16.25;;;14.65;;
20954;SDS011;10636;19.390;-99.256;2023-06-14T02:23:40;16.65;;;14.85;;
20954;SDS011;10636;19.390;-99.256;2023-06-14T02:26:10;16.60;;;14.65;;
20954;SDS011;10636;19.390;-99.256;2023-06-14T02:28:38;16.30;;;14.63;;
20954;SDS011;10636;19.390;-99.256;2023-06-14T02:31:07;17.30;;;15.52;;
20954;SDS011;10636;19.390;-99.256;2023-06-14T02:33:35;16.90;;;15.20;;
20954;SDS011;10636;19.390;-99.256;2023-06-14T02:36:04;16.95;;;15.35;;
20954;SDS011;10636;19.390;-99.256;2023-06-14T02:38:33;15.77;;;14.18;;
20954;SDS011;10636;19.390;-99.256;2023-06-14T02:41:02;18.10;;;14.30;;
20954;SDS011;10636;19.390;-99.256;2023-06-14T02:43:33;21.77;;;13.38;;
20954;SDS011;10636;19.390;-99.256;2023-06-14T02:46:02;13.98;;;12.35;;
20954;SDS011;10636;19.390;-99.256;2023-06-14T02:48:30;15.70;;;14.00;;
20954;SDS011;10636;19.390;-99.256;2023-06-14T02:50:59;14.30;;;12.90;;
20954;SDS011;10636;19.390;-99.256;2023-06-14T02:53:27;13.90;;;12.40;;
20954;SDS011;10636;19.390;-99.256;2023-06-14T02:55:56;16.20;;;12.50;;
20954;SDS011;10636;19.390;-99.256;2023-06-14T02:58:24;14.68;;;12.48;;
20954;SDS011;10636;19.390;-99.256;2023-06-14T03:00:54;14.18;;;12.50;;
20954;SDS011;10636;19.390;-99.256;2023-06-14T03:03:23;14.32;;;12.82;;
20954;SDS011;10636;19.390;-99.256;2023-06-14T03:05:52;14.95;;;12.80;;
20954;SDS011;10636;19.390;-99.256;2023-06-14T03:08:20;14.50;;;12.95;;
20954;SDS011;10636;19.390;-99.256;2023-06-14T03:10:52;13.85;;;12.45;;
20954;SDS011;10636;19.390;-99.256;2023-06-14T03:13:23;16.02;;;13.88;;
20954;SDS011;10636;19.390;-99.256;2023-06-14T03:15:52;14.25;;;12.88;;
20954;SDS011;10636;19.390;-99.256;2023-06-14T03:18:22;18.98;;;13.55;;
20954;SDS011;10636;19.390;-99.256;2023-06-14T03:20:50;17.10;;;14.07;;
20954;SDS011;10636;19.390;-99.256;2023-06-14T03:23:19;16.90;;;15.07;;
20954;SDS011;10636;19.390;-99.256;2023-06-14T03:25:48;17.40;;;14.85;;
20954;SDS011;10636;19.390;-99.256;2023-06-14T03:28:17;18.45;;;14.82;;
20954;SDS011;10636;19.390;-99.256;2023-06-14T03:30:45;17.42;;;15.63;;
20954;SDS011;10636;19.390;-99.256;2023-06-14T03:33:15;19.05;;;17.15;;
20954;SDS011;10636;19.390;-99.256;2023-06-14T03:35:44;18.80;;;15.35;;
20954;SDS011;10636;19.390;-99.256;2023-06-14T03:38:13;19.05;;;14.15;;
20954;SDS011;10636;19.390;-99.256;2023-06-14T03:40:41;17.00;;;13.40;;
20954;SDS011;10636;19.390;-99.256;2023-06-14T03:43:10;17.70;;;13.57;;
20954;SDS011;10636;19.390;-99.256;2023-06-14T03:45:38;15.80;;;13.25;;
20954;SDS011;10636;19.390;-99.256;2023-06-14T03:48:08;14.52;;;12.50;;
20954;SDS011;10636;19.390;-99.256;2023-06-14T03:50:38;14.55;;;12.35;;
20954;SDS011;10636;19.390;-99.256;2023-06-14T03:53:08;15.27;;;12.10;;
20954;SDS011;10636;19.390;-99.256;2023-06-14T03:55:37;14.00;;;11.70;;
20954;SDS011;10636;19.390;-99.256;2023-06-14T03:58:07;12.52;;;10.27;;
20954;SDS011;10636;19.390;-99.256;2023-06-14T04:00:36;11.77;;;10.57;;
20954;SDS011;10636;19.390;-99.256;2023-06-14T04:03:05;11.75;;;9.95;;
20954;SDS011;10636;19.390;-99.256;2023-06-14T04:05:34;11.52;;;10.15;;
20954;SDS011;10636;19.390;-99.256;2023-06-14T04:08:04;14.02;;;10.23;;
20954;SDS011;10636;19.390;-99.256;2023-06-14T04:10:34;12.90;;;10.13;;
20954;SDS011;10636;19.390;-99.256;2023-06-14T04:13:04;10.80;;;9.65;;
20954;SDS011;10636;19.390;-99.256;2023-06-14T04:15:32;12.18;;;9.60;;
20954;SDS011;10636;19.390;-99.256;2023-06-14T04:18:01;12.93;;;9.70;;
20954;SDS011;10636;19.390;-99.256;2023-06-14T04:20:30;13.57;;;10.00;;
20954;SDS011;10636;19.390;-99.256;2023-06-14T04:23:10;11.52;;;9.63;;
20954;SDS011;10636;19.390;-99.256;2023-06-14T04:25:41;12.77;;;10.18;;
20954;SDS011;10636;19.390;-99.256;2023-06-14T04:28:10;11.82;;;9.80;;
20954;SDS011;10636;19.390;-99.256;2023-06-14T04:30:40;13.38;;;10.50;;
20954;SDS011;10636;19.390;-99.256;2023-06-14T04:33:10;14.57;;;10.25;;
20954;SDS011;10636;19.390;-99.256;2023-06-14T04:35:39;12.40;;;10.50;;
20954;SDS011;10636;19.390;-99.256;2023-06-14T04:38:07;13.73;;;10.43;;
20954;SDS011;10636;19.390;-99.256;2023-06-14T04:40:38;12.30;;;10.52;;
20954;SDS011;10636;19.390;-99.256;2023-06-14T04:43:08;13.65;;;10.75;;
20954;SDS011;10636;19.390;-99.256;2023-06-14T04:45:38;13.88;;;10.68;;
20954;SDS011;10636;19.390;-99.256;2023-06-14T04:48:10;12.57;;;11.27;;
20954;SDS011;10636;19.390;-99.256;2023-06-14T04:50:39;12.90;;;11.38;;
20954;SDS011;10636;19.390;-99.256;2023-06-14T04:53:08;12.38;;;11.07;;
20954;SDS011;10636;19.390;-99.256;2023-06-14T04:55:39;13.77;;;10.73;;
20954;SDS011;10636;19.390;-99.256;2023-06-14T04:58:10;13.70;;;11.45;;
20954;SDS011;10636;19.390;-99.256;2023-06-14T05:00:39;13.07;;;11.40;;
20954;SDS011;10636;19.390;-99.256;2023-06-14T05:03:09;12.75;;;11.38;;
20954;SDS011;10636;19.390;-99.256;2023-06-14T05:05:39;12.82;;;11.52;;
20954;SDS011;10636;19.390;-99.256;2023-06-14T05:08:07;12.98;;;11.45;;
20954;SDS011;10636;19.390;-99.256;2023-06-14T05:10:36;13.35;;;12.02;;
20954;SDS011;10636;19.390;-99.256;2023-06-14T05:13:06;12.63;;;11.43;;
20954;SDS011;10636;19.390;-99.256;2023-06-14T05:15:36;13.00;;;11.60;;
20954;SDS011;10636;19.390;-99.256;2023-06-14T05:18:04;13.48;;;12.13;;
20954;SDS011;10636;19.390;-99.256;2023-06-14T05:20:34;12.93;;;11.60;;
20954;SDS011;10636;19.390;-99.256;2023-06-14T05:23:02;12.93;;;11.70;;
20954;SDS011;10636;19.390;-99.256;2023-06-14T05:25:31;12.82;;;10.95;;
20954;SDS011;10636;19.390;-99.256;2023-06-14T05:27:59;13.43;;;12.05;;
20954;SDS011;10636;19.390;-99.256;2023-06-14T05:30:30;13.15;;;11.73;;
20954;SDS011;10636;19.390;-99.256;2023-06-14T05:32:59;12.68;;;11.48;;
20954;SDS011;10636;19.390;-99.256;2023-06-14T05:35:27;13.65;;;11.57;;
20954;SDS011;10636;19.390;-99.256;2023-06-14T05:37:56;14.50;;;11.65;;
20954;SDS011;10636;19.390;-99.256;2023-06-14T05:40:24;12.55;;;11.35;;
20954;SDS011;10636;19.390;-99.256;2023-06-14T05:42:53;12.57;;;11.05;;
20954;SDS011;10636;19.390;-99.256;2023-06-14T05:45:21;12.85;;;11.43;;
20954;SDS011;10636;19.390;-99.256;2023-06-14T05:47:51;11.85;;;10.70;;
20954;SDS011;10636;19.390;-99.256;2023-06-14T05:50:21;12.70;;;11.40;;
20954;SDS011;10636;19.390;-99.256;2023-06-14T05:52:49;11.73;;;10.60;;
20954;SDS011;10636;19.390;-99.256;2023-06-14T05:55:18;13.38;;;11.52;;
20954;SDS011;10636;19.390;-99.256;2023-06-14T05:57:47;12.15;;;10.60;;
20954;SDS011;10636;19.390;-99.256;2023-06-14T06:00:16;11.80;;;10.70;;
20954;SDS011;10636;19.390;-99.256;2023-06-14T06:02:45;11.55;;;10.45;;
20954;SDS011;10636;19.390;-99.256;2023-06-14T06:05:16;12.00;;;10.80;;
20954;SDS011;10636;19.390;-99.256;2023-06-14T06:07:44;11.77;;;10.68;;
20954;SDS011;10636;19.390;-99.256;2023-06-14T06:10:13;12.05;;;10.75;;
20954;SDS011;10636;19.390;-99.256;2023-06-14T06:12:42;11.75;;;10.55;;
20954;SDS011;10636;19.390;-99.256;2023-06-14T06:15:13;11.80;;;10.68;;
20954;SDS011;10636;19.390;-99.256;2023-06-14T06:17:42;12.50;;;10.80;;
20954;SDS011;10636;19.390;-99.256;2023-06-14T06:20:11;11.50;;;10.30;;
20954;SDS011;10636;19.390;-99.256;2023-06-14T06:22:41;11.65;;;10.52;;
20954;SDS011;10636;19.390;-99.256;2023-06-14T06:25:10;11.60;;;10.07;;
20954;SDS011;10636;19.390;-99.256;2023-06-14T06:27:40;11.25;;;10.15;;
20954;SDS011;10636;19.390;-99.256;2023-06-14T06:30:09;11.45;;;9.68;;
20954;SDS011;10636;19.390;-99.256;2023-06-14T06:32:38;10.80;;;9.70;;
20954;SDS011;10636;19.390;-99.256;2023-06-14T06:35:06;11.35;;;10.00;;
20954;SDS011;10636;19.390;-99.256;2023-06-14T06:37:36;11.70;;;10.50;;
20954;SDS011;10636;19.390;-99.256;2023-06-14T06:40:07;11.00;;;9.80;;
20954;SDS011;10636;19.390;-99.256;2023-06-14T06:42:36;12.15;;;10.93;;
20954;SDS011;10636;19.390;-99.256;2023-06-14T06:45:05;11.07;;;10.02;;
20954;SDS011;10636;19.390;-99.256;2023-06-14T06:47:34;11.48;;;10.38;;
20954;SDS011;10636;19.390;-99.256;2023-06-14T06:50:02;11.65;;;10.32;;
20954;SDS011;10636;19.390;-99.256;2023-06-14T06:52:32;11.68;;;10.30;;
20954;SDS011;10636;19.390;-99.256;2023-06-14T06:55:00;10.77;;;9.68;;
20954;SDS011;10636;19.390;-99.256;2023-06-14T06:57:30;11.02;;;9.93;;
20954;SDS011;10636;19.390;-99.256;2023-06-14T06:59:59;11.07;;;9.98;;
20954;SDS011;10636;19.390;-99.256;2023-06-14T07:02:28;11.13;;;10.00;;
20954;SDS011;10636;19.390;-99.256;2023-06-14T07:04:57;10.90;;;9.88;;
20954;SDS011;10636;19.390;-99.256;2023-06-14T07:07:25;11.50;;;10.30;;
20954;SDS011;10636;19.390;-99.256;2023-06-14T07:09:54;11.07;;;9.98;;
20954;SDS011;10636;19.390;-99.256;2023-06-14T07:12:24;10.38;;;9.40;;
20954;SDS011;10636;19.390;-99.256;2023-06-14T07:14:54;10.80;;;9.70;;
20954;SDS011;10636;19.390;-99.256;2023-06-14T07:17:23;11.98;;;9.88;;
20954;SDS011;10636;19.390;-99.256;2023-06-14T07:19:51;11.32;;;9.82;;
20954;SDS011;10636;19.390;-99.256;2023-06-14T07:22:20;11.02;;;9.40;;
20954;SDS011;10636;19.390;-99.256;2023-06-14T07:24:48;11.43;;;10.23;;
20954;SDS011;10636;19.390;-99.256;2023-06-14T07:27:17;10.20;;;9.20;;
20954;SDS011;10636;19.390;-99.256;2023-06-14T07:29:45;10.60;;;9.50;;
20954;SDS011;10636;19.390;-99.256;2023-06-14T07:32:15;11.07;;;9.98;;
20954;SDS011;10636;19.390;-99.256;2023-06-14T07:34:44;10.88;;;9.77;;
20954;SDS011;10636;19.390;-99.256;2023-06-14T07:37:12;10.82;;;9.57;;
20954;SDS011;10636;19.390;-99.256;2023-06-14T07:39:41;10.93;;;9.55;;
20954;SDS011;10636;19.390;-99.256;2023-06-14T07:42:09;11.35;;;9.90;;
20954;SDS011;10636;19.390;-99.256;2023-06-14T07:44:38;10.60;;;9.60;;
20954;SDS011;10636;19.390;-99.256;2023-06-14T07:47:07;11.05;;;9.95;;
20954;SDS011;10636;19.390;-99.256;2023-06-14T07:49:37;11.57;;;10.10;;
20954;SDS011;10636;19.390;-99.256;2023-06-14T07:52:05;10.77;;;9.65;;
20954;SDS011;10636;19.390;-99.256;2023-06-14T07:54:34;10.82;;;9.82;;
20954;SDS011;10636;19.390;-99.256;2023-06-14T07:57:03;11.85;;;10.18;;
20954;SDS011;10636;19.390;-99.256;2023-06-14T07:59:32;10.90;;;9.90;;
20954;SDS011;10636;19.390;-99.256;2023-06-14T08:02:01;11.50;;;10.32;;
20954;SDS011;10636;19.390;-99.256;2023-06-14T08:04:29;11.23;;;10.02;;
20954;SDS011;10636;19.390;-99.256;2023-06-14T08:07:00;11.38;;;10.27;;
20954;SDS011;10636;19.390;-99.256;2023-06-14T08:09:28;10.65;;;9.65;;
20954;SDS011;10636;19.390;-99.256;2023-06-14T08:11:57;12.00;;;10.57;;
20954;SDS011;10636;19.390;-99.256;2023-06-14T08:14:25;11.20;;;9.90;;
20954;SDS011;10636;19.390;-99.256;2023-06-14T08:16:54;10.85;;;9.85;;
20954;SDS011;10636;19.390;-99.256;2023-06-14T08:19:23;11.57;;;10.43;;
20954;SDS011;10636;19.390;-99.256;2023-06-14T08:21:51;11.45;;;10.20;;
20954;SDS011;10636;19.390;-99.256;2023-06-14T08:24:23;12.05;;;9.85;;
20954;SDS011;10636;19.390;-99.256;2023-06-14T08:26:52;12.05;;;10.85;;
20954;SDS011;10636;19.390;-99.256;2023-06-14T08:29:22;11.55;;;10.45;;
20954;SDS011;10636;19.390;-99.256;2023-06-14T08:31:50;11.35;;;10.18;;
20954;SDS011;10636;19.390;-99.256;2023-06-14T08:34:19;11.10;;;10.00;;
20954;SDS011;10636;19.390;-99.256;2023-06-14T08:36:49;11.77;;;10.57;;
20954;SDS011;10636;19.390;-99.256;2023-06-14T08:39:18;12.32;;;10.35;;
20954;SDS011;10636;19.390;-99.256;2023-06-14T08:41:49;10.93;;;9.93;;
20954;SDS011;10636;19.390;-99.256;2023-06-14T08:44:19;11.35;;;10.32;;
20954;SDS011;10636;19.390;-99.256;2023-06-14T08:46:48;12.07;;;10.48;;
20954;SDS011;10636;19.390;-99.256;2023-06-14T08:49:19;11.85;;;9.73;;
20954;SDS011;10636;19.390;-99.256;2023-06-14T08:51:48;11.73;;;10.27;;
20954;SDS011;10636;19.390;-99.256;2023-06-14T08:54:23;11.07;;;10.10;;
20954;SDS011;10636;19.390;-99.256;2023-06-14T08:56:54;11.73;;;10.52;;
20954;SDS011;10636;19.390;-99.256;2023-06-14T08:59:24;11.50;;;10.35;;
20954;SDS011;10636;19.390;-99.256;2023-06-14T09:01:53;11.45;;;9.63;;
20954;SDS011;10636;19.390;-99.256;2023-06-14T09:04:22;11.57;;;10.38;;
20954;SDS011;10636;19.390;-99.256;2023-06-14T09:06:55;11.35;;;10.25;;
20954;SDS011;10636;19.390;-99.256;2023-06-14T09:09:24;11.93;;;10.63;;
20954;SDS011;10636;19.390;-99.256;2023-06-14T09:11:54;11.73;;;10.52;;
20954;SDS011;10636;19.390;-99.256;2023-06-14T09:14:23;12.32;;;9.90;;
20954;SDS011;10636;19.390;-99.256;2023-06-14T09:16:52;11.00;;;9.55;;
20954;SDS011;10636;19.390;-99.256;2023-06-14T09:19:21;11.68;;;10.48;;
20954;SDS011;10636;19.390;-99.256;2023-06-14T09:21:50;11.55;;;10.38;;
20954;SDS011;10636;19.390;-99.256;2023-06-14T09:24:21;11.27;;;10.27;;
20954;SDS011;10636;19.390;-99.256;2023-06-14T09:26:54;11.60;;;10.55;;
20954;SDS011;10636;19.390;-99.256;2023-06-14T09:29:23;11.43;;;10.32;;
20954;SDS011;10636;19.390;-99.256;2023-06-14T09:31:52;12.25;;;10.90;;
20954;SDS011;10636;19.390;-99.256;2023-06-14T09:34:21;11.82;;;10.45;;
20954;SDS011;10636;19.390;-99.256;2023-06-14T09:36:50;12.30;;;11.07;;
20954;SDS011;10636;19.390;-99.256;2023-06-14T09:39:19;11.55;;;10.45;;
20954;SDS011;10636;19.390;-99.256;2023-06-14T09:41:47;12.00;;;10.80;;
20954;SDS011;10636;19.390;-99.256;2023-06-14T09:44:17;11.63;;;10.43;;
20954;SDS011;10636;19.390;-99.256;2023-06-14T09:46:46;11.95;;;10.75;;
20954;SDS011;10636;19.390;-99.256;2023-06-14T09:49:16;11.82;;;10.63;;
20954;SDS011;10636;19.390;-99.256;2023-06-14T09:51:45;11.88;;;10.68;;
20954;SDS011;10636;19.390;-99.256;2023-06-14T09:54:20;11.10;;;10.13;;
20954;SDS011;10636;19.390;-99.256;2023-06-14T09:56:50;11.38;;;10.38;;
20954;SDS011;10636;19.390;-99.256;2023-06-14T09:59:21;11.77;;;10.57;;
20954;SDS011;10636;19.390;-99.256;2023-06-14T10:01:55;11.50;;;10.40;;
20954;SDS011;10636;19.390;-99.256;2023-06-14T10:04:26;11.77;;;10.57;;
20954;SDS011;10636;19.390;-99.256;2023-06-14T10:06:57;12.18;;;10.98;;
20954;SDS011;10636;19.390;-99.256;2023-06-14T10:09:28;12.00;;;10.90;;
20954;SDS011;10636;19.390;-99.256;2023-06-14T10:11:57;12.18;;;10.95;;
20954;SDS011;10636;19.390;-99.256;2023-06-14T10:14:27;12.32;;;10.90;;
20954;SDS011;10636;19.390;-99.256;2023-06-14T10:17:00;12.38;;;11.23;;
20954;SDS011;10636;19.390;-99.256;2023-06-14T10:19:36;11.90;;;10.60;;
20954;SDS011;10636;19.390;-99.256;2023-06-14T10:22:11;11.50;;;10.45;;
20954;SDS011;10636;19.390;-99.256;2023-06-14T10:24:44;12.48;;;10.45;;
20954;SDS011;10636;19.390;-99.256;2023-06-14T10:27:14;12.30;;;10.38;;
20954;SDS011;10636;19.390;-99.256;2023-06-14T10:30:04;11.55;;;10.45;;
20954;SDS011;10636;19.390;-99.256;2023-06-14T10:32:34;12.20;;;11.10;;
20954;SDS011;10636;19.390;-99.256;2023-06-14T10:35:23;11.65;;;10.55;;
20954;SDS011;10636;19.390;-99.256;2023-06-14T10:37:52;11.73;;;10.52;;
20954;SDS011;10636;19.390;-99.256;2023-06-14T10:40:30;11.30;;;10.20;;
20954;SDS011;10636;19.390;-99.256;2023-06-14T10:42:58;12.13;;;10.95;;
20954;SDS011;10636;19.390;-99.256;2023-06-14T10:45:28;11.60;;;10.52;;
20954;SDS011;10636;19.390;-99.256;2023-06-14T10:47:57;12.63;;;11.45;;
20954;SDS011;10636;19.390;-99.256;2023-06-14T10:50:28;12.15;;;10.85;;
20954;SDS011;10636;19.390;-99.256;2023-06-14T10:52:56;12.02;;;10.93;;
20954;SDS011;10636;19.390;-99.256;2023-06-14T10:55:25;12.55;;;11.43;;
20954;SDS011;10636;19.390;-99.256;2023-06-14T10:57:55;12.57;;;11.38;;
20954;SDS011;10636;19.390;-99.256;2023-06-14T11:00:24;12.82;;;11.57;;
20954;SDS011;10636;19.390;-99.256;2023-06-14T11:05:59;12.63;;;11.45;;
20954;SDS011;10636;19.390;-99.256;2023-06-14T11:08:33;12.40;;;11.32;;
20954;SDS011;10636;19.390;-99.256;2023-06-14T11:11:18;13.93;;;12.23;;
20954;SDS011;10636;19.390;-99.256;2023-06-14T11:13:50;13.80;;;12.32;;
20954;SDS011;10636;19.390;-99.256;2023-06-14T11:16:19;12.70;;;11.32;;
20954;SDS011;10636;19.390;-99.256;2023-06-14T11:18:49;12.70;;;11.50;;
20954;SDS011;10636;19.390;-99.256;2023-06-14T11:21:18;13.32;;;12.05;;
20954;SDS011;10636;19.390;-99.256;2023-06-14T11:23:50;13.50;;;12.05;;
20954;SDS011;10636;19.390;-99.256;2023-06-14T11:26:26;12.63;;;11.43;;
20954;SDS011;10636;19.390;-99.256;2023-06-14T11:28:55;12.57;;;11.27;;
20954;SDS011;10636;19.390;-99.256;2023-06-14T11:31:24;12.38;;;11.25;;
20954;SDS011;10636;19.390;-99.256;2023-06-14T11:33:55;13.00;;;11.80;;
20954;SDS011;10636;19.390;-99.256;2023-06-14T11:36:26;12.63;;;11.32;;
20954;SDS011;10636;19.390;-99.256;2023-06-14T11:38:58;13.32;;;11.98;;
20954;SDS011;10636;19.390;-99.256;2023-06-14T11:41:36;12.52;;;11.38;;
20954;SDS011;10636;19.390;-99.256;2023-06-14T11:44:05;12.52;;;11.23;;
20954;SDS011;10636;19.390;-99.256;2023-06-14T11:46:34;12.95;;;11.57;;
20954;SDS011;10636;19.390;-99.256;2023-06-14T11:49:04;12.90;;;11.60;;
20954;SDS011;10636;19.390;-99.256;2023-06-14T11:51:35;12.80;;;11.65;;
20954;SDS011;10636;19.390;-99.256;2023-06-14T11:54:04;12.32;;;11.20;;
20954;SDS011;10636;19.390;-99.256;2023-06-14T11:56:34;12.55;;;11.35;;
20954;SDS011;10636;19.390;-99.256;2023-06-14T11:59:05;12.38;;;11.18;;
20954;SDS011;10636;19.390;-99.256;2023-06-14T12:01:35;13.10;;;11.80;;
20954;SDS011;10636;19.390;-99.256;2023-06-14T12:04:07;12.90;;;11.60;;
20954;SDS011;10636;19.390;-99.256;2023-06-14T12:06:35;14.27;;;11.02;;
20954;SDS011;10636;19.390;-99.256;2023-06-14T12:09:05;13.90;;;10.65;;
20954;SDS011;10636;19.390;-99.256;2023-06-14T12:11:38;12.77;;;11.38;;
20954;SDS011;10636;19.390;-99.256;2023-06-14T12:14:08;12.48;;;11.27;;
20954;SDS011;10636;19.390;-99.256;2023-06-14T12:16:37;12.48;;;10.82;;
20954;SDS011;10636;19.390;-99.256;2023-06-14T12:19:12;12.52;;;11.23;;
20954;SDS011;10636;19.390;-99.256;2023-06-14T12:21:42;12.68;;;11.38;;
20954;SDS011;10636;19.390;-99.256;2023-06-14T12:24:14;13.35;;;11.73;;
20954;SDS011;10636;19.390;-99.256;2023-06-14T12:26:42;12.68;;;11.38;;
20954;SDS011;10636;19.390;-99.256;2023-06-14T12:29:11;12.88;;;11.57;;
20954;SDS011;10636;19.390;-99.256;2023-06-14T12:31:40;12.60;;;11.30;;
20954;SDS011;10636;19.390;-99.256;2023-06-14T12:34:09;12.88;;;11.50;;
20954;SDS011;10636;19.390;-99.256;2023-06-14T12:36:39;12.80;;;11.05;;
20954;SDS011;10636;19.390;-99.256;2023-06-14T12:39:10;12.95;;;11.65;;
20954;SDS011;10636;19.390;-99.256;2023-06-14T12:41:38;14.02;;;12.50;;
20954;SDS011;10636;19.390;-99.256;2023-06-14T12:44:08;13.15;;;11.95;;
20954;SDS011;10636;19.390;-99.256;2023-06-14T12:46:37;13.52;;;12.23;;
20954;SDS011;10636;19.390;-99.256;2023-06-14T12:49:08;15.18;;;12.48;;
20954;SDS011;10636;19.390;-99.256;2023-06-14T12:51:39;14.35;;;12.95;;
20954;SDS011;10636;19.390;-99.256;2023-06-14T12:54:07;14.27;;;12.57;;
20954;SDS011;10636;19.390;-99.256;2023-06-14T12:56:36;13.95;;;12.30;;
20954;SDS011;10636;19.390;-99.256;2023-06-14T12:59:07;13.63;;;12.32;;
20954;SDS011;10636;19.390;-99.256;2023-06-14T13:01:37;14.50;;;13.07;;
20954;SDS011;10636;19.390;-99.256;2023-06-14T13:04:06;14.50;;;13.18;;
20954;SDS011;10636;19.390;-99.256;2023-06-14T13:06:35;14.00;;;12.63;;
20954;SDS011;10636;19.390;-99.256;2023-06-14T13:09:05;15.52;;;12.95;;
20954;SDS011;10636;19.390;-99.256;2023-06-14T13:11:35;15.02;;;13.43;;
20954;SDS011;10636;19.390;-99.256;2023-06-14T13:14:04;16.92;;;13.48;;
20954;SDS011;10636;19.390;-99.256;2023-06-14T13:16:33;15.07;;;13.48;;
20954;SDS011;10636;19.390;-99.256;2023-06-14T13:19:01;14.48;;;13.13;;
20954;SDS011;10636;19.390;-99.256;2023-06-14T13:21:30;17.67;;;13.02;;
20954;SDS011;10636;19.390;-99.256;2023-06-14T13:23:58;14.70;;;13.07;;
20954;SDS011;10636;19.390;-99.256;2023-06-14T13:26:28;14.10;;;12.80;;
20954;SDS011;10636;19.390;-99.256;2023-06-14T13:28:57;14.40;;;12.85;;
20954;SDS011;10636;19.390;-99.256;2023-06-14T13:31:25;17.08;;;12.70;;
20954;SDS011;10636;19.390;-99.256;2023-06-14T13:33:54;14.40;;;12.80;;
20954;SDS011;10636;19.390;-99.256;2023-06-14T13:36:22;14.40;;;12.90;;
20954;SDS011;10636;19.390;-99.256;2023-06-14T13:38:51;13.88;;;12.57;;
20954;SDS011;10636;19.390;-99.256;2023-06-14T13:41:20;14.63;;;13.00;;
20954;SDS011;10636;19.390;-99.256;2023-06-14T13:43:50;13.73;;;12.43;;
20954;SDS011;10636;19.390;-99.256;2023-06-14T13:46:19;14.77;;;13.25;;
20954;SDS011;10636;19.390;-99.256;2023-06-14T13:48:47;14.98;;;12.82;;
20954;SDS011;10636;19.390;-99.256;2023-06-14T13:51:16;14.65;;;11.88;;
20954;SDS011;10636;19.390;-99.256;2023-06-14T13:53:46;15.32;;;12.15;;
20954;SDS011;10636;19.390;-99.256;2023-06-14T13:56:16;14.52;;;12.98;;
20954;SDS011;10636;19.390;-99.256;2023-06-14T13:58:45;14.18;;;12.65;;
20954;SDS011;10636;19.390;-99.256;2023-06-14T14:01:15;14.10;;;12.55;;
20954;SDS011;10636;19.390;-99.256;2023-06-14T14:03:45;15.23;;;12.23;;
20954;SDS011;10636;19.390;-99.256;2023-06-14T14:06:13;17.63;;;12.77;;
20954;SDS011;10636;19.390;-99.256;2023-06-14T14:08:42;15.52;;;13.18;;
20954;SDS011;10636;19.390;-99.256;2023-06-14T14:11:11;16.13;;;14.35;;
20954;SDS011;10636;19.390;-99.256;2023-06-14T14:13:41;20.63;;;15.15;;
20954;SDS011;10636;19.390;-99.256;2023-06-14T14:16:10;15.65;;;14.15;;
20954;SDS011;10636;19.390;-99.256;2023-06-14T14:18:40;17.35;;;14.10;;